createdAt,value
2019-03-24T00:00:19.774Z,88.62
2019-03-24T00:01:19.752Z,88.86
2019-03-24T00:02:19.743Z,88.45
2019-03-24T00:03:19.744Z,88.66
2019-03-24T00:04:19.720Z,88.56
2019-03-24T00:05:19.716Z,88.45
2019-03-24T00:06:19.700Z,88.45
2019-03-24T00:07:19.686Z,88.04
2019-03-24T00:08:19.683Z,88.45
2019-03-24T00:09:19.670Z,88.66
2019-03-24T00:10:19.666Z,88.35
2019-03-24T00:11:19.658Z,88.56
2019-03-24T00:12:19.632Z,88.66
2019-03-24T00:13:19.619Z,88.80
2019-03-24T00:14:19.609Z,88.56
2019-03-24T00:15:26.044Z,88.80
2019-03-24T00:16:20.590Z,88.90
2019-03-24T00:17:19.582Z,88.80
2019-03-24T00:18:19.570Z,88.90
2019-03-24T00:19:19.561Z,89.11
2019-03-24T00:20:19.542Z,88.90
2019-03-24T00:21:19.544Z,88.80
2019-03-24T00:22:19.518Z,88.43
2019-03-24T00:23:19.514Z,88.18
2019-03-24T00:24:19.500Z,88.39
2019-03-24T00:25:19.493Z,88.12
2019-03-24T00:26:19.484Z,87.92
2019-03-24T00:27:19.474Z,88.29
2019-03-24T00:28:19.459Z,88.02
2019-03-24T00:29:19.451Z,88.18
2019-03-24T00:30:19.441Z,88.08
2019-03-24T00:31:19.434Z,88.12
2019-03-24T00:32:19.418Z,88.33
2019-03-24T00:33:19.407Z,88.23
2019-03-24T00:34:19.407Z,88.43
2019-03-24T00:35:19.376Z,88.23
2019-03-24T00:36:19.366Z,88.12
2019-03-24T00:37:19.364Z,87.92
2019-03-24T00:38:19.359Z,88.02
2019-03-24T00:39:19.352Z,88.12
2019-03-24T00:40:19.326Z,88.12
2019-03-24T00:41:19.322Z,87.24
2019-03-24T00:42:19.307Z,87.51
2019-03-24T00:43:19.292Z,88.06
2019-03-24T00:44:19.292Z,88.17
2019-03-24T00:45:19.271Z,88.06
2019-03-24T00:46:19.258Z,88.06
2019-03-24T00:47:19.253Z,87.92
2019-03-24T00:48:19.238Z,88.26
2019-03-24T00:49:19.232Z,88.06
2019-03-24T00:50:19.230Z,88.12
2019-03-24T00:51:19.204Z,88.06
2019-03-24T00:52:19.194Z,88.37
2019-03-24T00:53:19.183Z,88.26
2019-03-24T00:54:19.172Z,87.54
2019-03-24T00:55:19.164Z,88.02
2019-03-24T00:56:19.148Z,88.06
2019-03-24T00:57:19.140Z,88.23
2019-03-24T00:58:19.128Z,87.96
2019-03-24T00:59:19.119Z,88.26
2019-03-24T01:00:19.108Z,88.06
2019-03-24T01:01:19.102Z,88.37
2019-03-24T01:02:19.086Z,88.17
2019-03-24T01:03:19.079Z,88.17
2019-03-24T01:04:19.059Z,88.26
2019-03-24T01:05:19.057Z,88.47
2019-03-24T01:06:19.051Z,88.26
2019-03-24T01:07:19.027Z,88.20
2019-03-24T01:08:19.019Z,88.51
2019-03-24T01:09:19.006Z,88.47
2019-03-24T01:10:19.000Z,88.47
2019-03-24T01:11:18.990Z,89.03
2019-03-24T01:12:18.985Z,88.47
2019-03-24T01:13:18.962Z,88.31
2019-03-24T01:14:18.957Z,88.06
2019-03-24T01:15:18.942Z,88.57
2019-03-24T01:16:18.930Z,88.20
2019-03-24T01:17:18.959Z,88.31
2019-03-24T01:18:18.918Z,87.90
2019-03-24T01:19:18.898Z,88.31
2019-03-24T01:20:18.884Z,88.20
2019-03-24T01:21:18.875Z,88.20
2019-03-24T01:22:18.869Z,88.20
2019-03-24T01:23:18.862Z,88.20
2019-03-24T01:24:18.846Z,88.10
2019-03-24T01:25:18.833Z,87.59
2019-03-24T01:26:18.822Z,87.79
2019-03-24T01:27:18.810Z,87.48
2019-03-24T01:28:18.800Z,87.48
2019-03-24T01:29:18.800Z,88.31
2019-03-24T01:30:18.774Z,87.79
2019-03-24T01:31:18.771Z,87.27
2019-03-24T01:32:18.758Z,87.21
2019-03-24T01:33:18.749Z,87.83
2019-03-24T01:34:18.733Z,87.83
2019-03-24T01:35:18.738Z,88.56
2019-03-24T01:36:18.709Z,87.73
2019-03-24T01:37:18.705Z,87.73
2019-03-24T01:38:18.694Z,88.35
2019-03-24T01:39:18.685Z,87.93
2019-03-24T01:40:18.686Z,87.52
2019-03-24T01:41:18.664Z,87.52
2019-03-24T01:42:18.659Z,88.56
2019-03-24T01:43:18.635Z,87.73
2019-03-24T01:44:18.635Z,87.63
2019-03-24T01:45:18.619Z,87.32
2019-03-24T01:46:18.616Z,87.93
2019-03-24T01:47:18.597Z,87.93
2019-03-24T01:48:18.587Z,87.83
2019-03-24T01:49:18.574Z,88.18
2019-03-24T01:50:18.568Z,87.46
2019-03-24T01:51:18.564Z,87.56
2019-03-24T01:52:18.563Z,87.98
2019-03-24T01:53:18.531Z,88.39
2019-03-24T01:54:18.521Z,88.43
2019-03-24T01:55:18.509Z,88.84
2019-03-24T01:56:18.499Z,88.95
2019-03-24T01:57:18.493Z,88.64
2019-03-24T01:58:18.477Z,88.74
2019-03-24T01:59:18.464Z,88.84
2019-03-24T02:00:18.462Z,88.74
2019-03-24T02:01:18.461Z,88.74
2019-03-24T02:02:18.447Z,88.64
2019-03-24T02:03:18.427Z,88.22
2019-03-24T02:04:18.411Z,88.02
2019-03-24T02:05:18.395Z,88.74
2019-03-24T02:06:18.391Z,88.53
2019-03-24T02:07:18.385Z,88.43
2019-03-24T02:08:18.381Z,88.78
2019-03-24T02:09:18.369Z,88.57
2019-03-24T02:10:18.350Z,88.43
2019-03-24T02:11:18.343Z,88.26
2019-03-24T02:12:18.334Z,88.78
2019-03-24T02:13:18.318Z,88.78
2019-03-24T02:14:18.311Z,89.19
2019-03-24T02:15:18.294Z,88.41
2019-03-24T02:16:18.285Z,88.71
2019-03-24T02:17:18.273Z,88.61
2019-03-24T02:18:18.268Z,89.03
2019-03-24T02:19:18.253Z,88.82
2019-03-24T02:20:18.247Z,88.61
2019-03-24T02:21:18.225Z,89.03
2019-03-24T02:22:18.218Z,88.61
2019-03-24T02:23:18.208Z,88.20
2019-03-24T02:24:18.200Z,88.34
2019-03-24T02:25:18.200Z,88.34
2019-03-24T02:26:18.183Z,88.34
2019-03-24T02:27:18.167Z,88.45
2019-03-24T02:28:18.153Z,88.76
2019-03-24T02:29:18.142Z,89.11
2019-03-24T02:30:18.135Z,88.65
2019-03-24T02:31:18.122Z,88.49
2019-03-24T02:32:18.107Z,88.76
2019-03-24T02:33:18.098Z,88.76
2019-03-24T02:34:18.097Z,88.76
2019-03-24T02:35:18.095Z,88.76
2019-03-24T02:36:18.072Z,88.45
2019-03-24T02:37:18.073Z,88.39
2019-03-24T02:38:18.045Z,88.65
2019-03-24T02:39:18.037Z,88.34
2019-03-24T02:40:18.025Z,88.76
2019-03-24T02:41:18.011Z,88.45
2019-03-24T02:42:18.008Z,88.28
2019-03-24T02:43:17.990Z,88.80
2019-03-24T02:44:17.980Z,88.39
2019-03-24T02:45:17.966Z,88.39
2019-03-24T02:46:24.084Z,87.66
2019-03-24T02:47:18.946Z,87.87
2019-03-24T02:48:17.936Z,88.39
2019-03-24T02:49:17.935Z,88.64
2019-03-24T02:50:17.915Z,88.49
2019-03-24T02:51:17.901Z,88.32
2019-03-24T02:52:17.895Z,88.53
2019-03-24T02:53:17.886Z,87.60
2019-03-24T02:54:17.871Z,88.64
2019-03-24T02:55:17.855Z,88.39
2019-03-24T02:56:17.846Z,88.53
2019-03-24T02:57:17.845Z,87.76
2019-03-24T02:58:17.852Z,87.46
2019-03-24T02:59:17.819Z,88.12
2019-03-24T03:00:17.807Z,87.39
2019-03-24T03:01:17.797Z,87.70
2019-03-24T03:02:17.799Z,87.18
2019-03-24T03:03:17.775Z,87.39
2019-03-24T03:04:17.761Z,87.49
2019-03-24T03:05:17.759Z,88.32
2019-03-24T03:06:17.738Z,87.60
2019-03-24T03:07:17.734Z,86.88
2019-03-24T03:08:17.715Z,86.77
2019-03-24T03:09:17.712Z,86.67
2019-03-24T03:10:17.704Z,86.88
2019-03-24T03:11:17.696Z,87.08
2019-03-24T03:12:17.674Z,86.91
2019-03-24T03:13:17.668Z,87.64
2019-03-24T03:14:17.666Z,87.23
2019-03-24T03:15:17.644Z,88.36
2019-03-24T03:16:17.650Z,87.43
2019-03-24T03:17:17.619Z,88.46
2019-03-24T03:18:17.614Z,87.54
2019-03-24T03:19:17.601Z,88.46
2019-03-24T03:20:17.595Z,88.16
2019-03-24T03:21:17.583Z,87.74
2019-03-24T03:22:17.574Z,87.33
2019-03-24T03:23:17.565Z,88.16
2019-03-24T03:24:17.556Z,88.51
2019-03-24T03:25:17.540Z,88.40
2019-03-24T03:26:17.536Z,88.20
2019-03-24T03:27:17.519Z,88.71
2019-03-24T03:28:17.500Z,87.88
2019-03-24T03:29:17.492Z,88.03
2019-03-24T03:30:17.645Z,88.30
2019-03-24T03:31:17.479Z,88.86
2019-03-24T03:32:17.463Z,88.55
2019-03-24T03:33:17.477Z,88.45
2019-03-24T03:34:17.463Z,88.65
2019-03-24T03:35:17.427Z,89.07
2019-03-24T03:36:17.419Z,88.76
2019-03-24T03:37:17.422Z,88.90
2019-03-24T03:38:17.397Z,88.90
2019-03-24T03:39:17.393Z,88.90
2019-03-24T03:40:17.378Z,88.96
2019-03-24T03:41:17.370Z,88.90
2019-03-24T03:42:17.357Z,88.48
2019-03-24T03:43:17.341Z,88.59
2019-03-24T03:44:17.345Z,88.84
2019-03-24T03:45:17.328Z,89.04
2019-03-24T03:46:17.327Z,89.25
2019-03-24T03:47:17.298Z,89.56
2019-03-24T03:48:17.287Z,89.46
2019-03-24T03:49:17.284Z,89.98
2019-03-24T03:50:17.266Z,89.81
2019-03-24T03:51:17.260Z,90.02
2019-03-24T03:52:17.249Z,90.54
2019-03-24T03:53:17.236Z,90.44
2019-03-24T03:54:17.234Z,89.92
2019-03-24T03:55:17.216Z,90.02
2019-03-24T03:56:17.208Z,89.40
2019-03-24T03:57:17.187Z,90.02
2019-03-24T03:58:17.178Z,89.81
2019-03-24T03:59:17.163Z,90.33
2019-03-24T04:00:17.158Z,90.17
2019-03-24T04:01:17.163Z,90.12
2019-03-24T04:02:17.144Z,89.81
2019-03-24T04:03:17.127Z,90.12
2019-03-24T04:04:17.115Z,90.17
2019-03-24T04:05:17.108Z,90.17
2019-03-24T04:06:17.090Z,90.17
2019-03-24T04:07:17.085Z,89.96
2019-03-24T04:08:17.075Z,89.96
2019-03-24T04:09:17.058Z,89.81
2019-03-24T04:10:17.048Z,89.81
2019-03-24T04:11:17.056Z,89.75
2019-03-24T04:12:17.030Z,90.17
2019-03-24T04:13:17.028Z,90.27
2019-03-24T04:14:17.005Z,90.27
2019-03-24T04:15:16.994Z,90.69
2019-03-24T04:16:16.981Z,90.27
2019-03-24T04:17:16.973Z,90.17
2019-03-24T04:18:16.969Z,90.48
2019-03-24T04:19:16.952Z,90.17
2019-03-24T04:20:16.937Z,90.48
2019-03-24T04:21:16.930Z,90.27
2019-03-24T04:22:16.929Z,90.69
2019-03-24T04:23:16.917Z,90.27
2019-03-24T04:24:16.900Z,90.17
2019-03-24T04:25:16.892Z,90.72
2019-03-24T04:26:16.870Z,89.89
2019-03-24T04:27:16.863Z,90.62
2019-03-24T04:28:16.858Z,90.41
2019-03-24T04:29:16.849Z,91.45
2019-03-24T04:30:16.839Z,91.03
2019-03-24T04:31:16.897Z,90.87
2019-03-24T04:32:16.814Z,91.39
2019-03-24T04:33:16.807Z,91.28
2019-03-24T04:34:16.788Z,91.39
2019-03-24T04:35:16.786Z,91.80
2019-03-24T04:36:16.772Z,92.07
2019-03-24T04:37:16.756Z,91.86
2019-03-24T04:38:16.753Z,91.86
2019-03-24T04:39:16.740Z,91.35
2019-03-24T04:40:16.725Z,91.66
2019-03-24T04:41:16.729Z,91.55
2019-03-24T04:42:16.702Z,91.24
2019-03-24T04:43:16.698Z,90.93
2019-03-24T04:44:16.678Z,90.83
2019-03-24T04:45:16.668Z,90.93
2019-03-24T04:46:16.669Z,91.24
2019-03-24T04:47:16.996Z,91.45
2019-03-24T04:48:16.642Z,91.35
2019-03-24T04:49:16.625Z,91.35
2019-03-24T04:50:16.620Z,90.93
2019-03-24T04:51:16.604Z,91.03
2019-03-24T04:52:16.606Z,90.93
2019-03-24T04:53:16.587Z,90.79
2019-03-24T04:54:16.570Z,90.89
2019-03-24T04:55:16.560Z,90.79
2019-03-24T04:56:16.562Z,91.10
2019-03-24T04:57:16.546Z,91.10
2019-03-24T04:58:16.537Z,91.31
2019-03-24T04:59:16.517Z,90.37
2019-03-24T05:00:16.504Z,90.17
2019-03-24T05:01:16.496Z,90.69
2019-03-24T05:02:16.480Z,90.52
2019-03-24T05:03:16.486Z,90.93
2019-03-24T05:04:16.473Z,90.72
2019-03-24T05:05:16.450Z,91.03
2019-03-24T05:06:16.451Z,91.35
2019-03-24T05:07:16.436Z,90.83
2019-03-24T05:08:16.421Z,90.83
2019-03-24T05:09:16.411Z,90.69
2019-03-24T05:10:16.395Z,90.37
2019-03-24T05:11:16.468Z,89.96
2019-03-24T05:12:16.382Z,90.37
2019-03-24T05:13:16.376Z,90.20
2019-03-24T05:14:16.360Z,90.41
2019-03-24T05:15:16.354Z,89.89
2019-03-24T05:16:16.336Z,90.48
2019-03-24T05:17:26.505Z,90.27
2019-03-24T05:18:17.318Z,90.37
2019-03-24T05:19:16.306Z,89.75
2019-03-24T05:20:16.302Z,89.96
2019-03-24T05:21:16.284Z,89.54
2019-03-24T05:22:16.272Z,89.81
2019-03-24T05:23:16.260Z,89.19
2019-03-24T05:24:16.252Z,89.19
2019-03-24T05:25:16.240Z,89.19
2019-03-24T05:26:16.240Z,88.78
2019-03-24T05:27:16.213Z,88.67
2019-03-24T05:28:16.201Z,89.15
2019-03-24T05:29:16.192Z,88.53
2019-03-24T05:30:16.195Z,88.94
2019-03-24T05:31:16.180Z,88.73
2019-03-24T05:32:16.174Z,87.59
2019-03-24T05:33:16.148Z,88.11
2019-03-24T05:34:16.140Z,88.63
2019-03-24T05:35:16.128Z,88.18
2019-03-24T05:36:16.125Z,87.76
2019-03-24T05:37:16.104Z,87.76
2019-03-24T05:38:16.097Z,87.35
2019-03-24T05:39:16.094Z,87.14
2019-03-24T05:40:16.076Z,86.37
2019-03-24T05:41:16.066Z,86.68
2019-03-24T05:42:16.065Z,86.58
2019-03-24T05:43:16.043Z,86.79
2019-03-24T05:44:16.032Z,85.75
2019-03-24T05:45:16.024Z,86.17
2019-03-24T05:46:16.017Z,85.69
2019-03-24T05:47:16.006Z,86.00
2019-03-24T05:48:15.993Z,85.79
2019-03-24T05:49:15.988Z,86.55
2019-03-24T05:50:15.970Z,86.97
2019-03-24T05:51:15.956Z,87.07
2019-03-24T05:52:15.952Z,87.84
2019-03-24T05:53:15.941Z,88.88
2019-03-24T05:54:15.935Z,88.46
2019-03-24T05:55:15.916Z,88.57
2019-03-24T05:56:15.904Z,87.43
2019-03-24T05:57:15.894Z,87.95
2019-03-24T05:58:15.888Z,88.57
2019-03-24T05:59:15.875Z,88.46
2019-03-24T06:00:15.866Z,87.95
2019-03-24T06:01:15.851Z,87.53
2019-03-24T06:02:15.842Z,88.21
2019-03-24T06:03:15.829Z,88.05
2019-03-24T06:04:15.822Z,87.07
2019-03-24T06:05:15.810Z,87.59
2019-03-24T06:06:15.804Z,87.07
2019-03-24T06:07:15.791Z,87.04
2019-03-24T06:08:15.783Z,86.41
2019-03-24T06:09:15.770Z,86.58
2019-03-24T06:10:15.760Z,85.65
2019-03-24T06:11:15.754Z,85.65
2019-03-24T06:12:15.737Z,85.34
2019-03-24T06:13:15.726Z,85.34
2019-03-24T06:14:15.716Z,84.99
2019-03-24T06:15:15.708Z,85.50
2019-03-24T06:16:15.690Z,84.99
2019-03-24T06:17:15.679Z,84.47
2019-03-24T06:18:15.671Z,84.68
2019-03-24T06:19:15.658Z,83.85
2019-03-24T06:20:15.646Z,84.12
2019-03-24T06:21:15.640Z,84.27
2019-03-24T06:22:15.626Z,83.91
2019-03-24T06:23:15.622Z,83.53
2019-03-24T06:24:15.606Z,81.41
2019-03-24T06:25:15.640Z,76.70
2019-03-24T06:26:15.586Z,72.89
2019-03-24T06:27:15.568Z,69.50
2019-03-24T06:28:15.562Z,67.56
2019-03-24T06:29:15.566Z,65.07
2019-03-24T06:30:15.536Z,62.73
2019-03-24T06:31:15.532Z,62.11
2019-03-24T06:32:15.515Z,61.61
2019-03-24T06:33:15.502Z,59.28
2019-03-24T06:34:15.497Z,56.76
2019-03-24T06:35:15.492Z,55.38
2019-03-24T06:36:15.480Z,54.24
2019-03-24T06:37:15.474Z,52.86
2019-03-24T06:38:15.458Z,52.86
2019-03-24T06:39:15.446Z,52.84
2019-03-24T06:40:15.434Z,52.58
2019-03-24T06:41:15.420Z,53.44
2019-03-24T06:42:15.414Z,53.50
2019-03-24T06:43:15.398Z,52.86
2019-03-24T06:44:15.389Z,52.25
2019-03-24T06:45:15.401Z,52.58
2019-03-24T06:46:15.365Z,53.37
2019-03-24T06:47:15.356Z,52.86
2019-03-24T06:48:15.351Z,52.43
2019-03-24T06:49:15.334Z,52.30
2019-03-24T06:50:15.322Z,52.66
2019-03-24T06:51:15.314Z,54.24
2019-03-24T06:52:15.324Z,54.77
2019-03-24T06:53:15.326Z,56.15
2019-03-24T06:54:15.279Z,56.68
2019-03-24T06:55:15.277Z,57.48
2019-03-24T06:56:15.302Z,58.62
2019-03-24T06:57:16.978Z,60.05
2019-03-24T06:58:15.238Z,61.10
2019-03-24T06:59:15.227Z,60.96
2019-03-24T07:00:15.207Z,62.45
2019-03-24T07:01:15.202Z,63.09
2019-03-24T07:02:15.203Z,63.29
2019-03-24T07:03:15.182Z,63.68
2019-03-24T07:04:15.171Z,63.47
2019-03-24T07:05:15.152Z,63.09
2019-03-24T07:06:15.153Z,63.90
2019-03-24T07:07:15.137Z,64.57
2019-03-24T07:08:15.124Z,66.48
2019-03-24T07:09:15.121Z,66.58
2019-03-24T07:10:15.121Z,66.86
2019-03-24T07:11:15.093Z,67.17
2019-03-24T07:12:15.078Z,68.43
2019-03-24T07:13:15.068Z,68.10
2019-03-24T07:14:15.064Z,67.58
2019-03-24T07:15:15.050Z,67.55
2019-03-24T07:16:15.042Z,67.52
2019-03-24T07:17:15.035Z,66.77
2019-03-24T07:18:15.014Z,65.54
2019-03-24T07:19:15.026Z,66.05
2019-03-24T07:20:15.030Z,65.10
2019-03-24T07:21:14.997Z,65.54
2019-03-24T07:22:14.982Z,65.77
2019-03-24T07:23:14.970Z,65.36
2019-03-24T07:24:14.956Z,65.67
2019-03-24T07:25:14.955Z,67.03
2019-03-24T07:26:14.934Z,67.17
2019-03-24T07:27:14.920Z,67.48
2019-03-24T07:28:14.907Z,66.96
2019-03-24T07:29:14.896Z,67.38
2019-03-24T07:30:14.898Z,67.07
2019-03-24T07:31:14.890Z,66.83
2019-03-24T07:32:14.870Z,66.93
2019-03-24T07:33:14.852Z,66.49
2019-03-24T07:34:14.863Z,65.03
2019-03-24T07:35:14.846Z,66.33
2019-03-24T07:36:14.824Z,65.01
2019-03-24T07:37:14.830Z,64.29
2019-03-24T07:38:14.805Z,63.03
2019-03-24T07:39:14.798Z,62.59
2019-03-24T07:40:14.790Z,59.67
2019-03-24T07:41:14.794Z,59.31
2019-03-24T07:42:14.774Z,58.50
2019-03-24T07:43:14.744Z,57.01
2019-03-24T07:44:14.756Z,55.41
2019-03-24T07:45:14.744Z,53.37
2019-03-24T07:46:14.729Z,51.49
2019-03-24T07:47:14.721Z,51.01
2019-03-24T07:48:19.036Z,45.75
2019-03-24T07:49:14.683Z,46.52
2019-03-24T07:50:14.670Z,45.12
2019-03-24T07:51:14.680Z,44.78
2019-03-24T07:52:14.648Z,47.03
2019-03-24T07:53:14.656Z,51.06
2019-03-24T07:54:14.628Z,48.63
2019-03-24T07:55:14.624Z,45.26
2019-03-24T07:56:14.606Z,40.82
2019-03-24T07:57:14.603Z,38.93
2019-03-24T07:58:14.593Z,39.72
2019-03-24T07:59:14.586Z,38.33
2019-03-24T08:00:14.586Z,40.34
2019-03-24T08:01:14.551Z,42.96
2019-03-24T08:02:14.542Z,42.64
2019-03-24T08:03:14.522Z,41.93
2019-03-24T08:04:14.519Z,40.22
2019-03-24T08:05:14.504Z,39.76
2019-03-24T08:06:14.503Z,39.82
2019-03-24T08:07:14.492Z,38.78
2019-03-24T08:08:14.496Z,39.03
2019-03-24T08:09:14.464Z,41.06
2019-03-24T08:10:14.466Z,39.94
2019-03-24T08:11:14.442Z,41.95
2019-03-24T08:12:14.428Z,44.32
2019-03-24T08:13:14.426Z,43.52
2019-03-24T08:14:14.408Z,46.00
2019-03-24T08:15:14.554Z,47.24
2019-03-24T08:16:14.426Z,42.21
2019-03-24T08:17:45.178Z,42.15
2019-03-24T08:18:45.134Z,41.73
2019-03-24T08:20:15.906Z,42.07
2019-03-24T08:21:15.916Z,42.72
2019-03-24T08:22:46.721Z,42.18
2019-03-24T08:23:46.646Z,42.49
2019-03-24T08:24:46.636Z,42.41
2019-03-24T08:25:46.590Z,42.92
2019-03-24T08:26:46.570Z,42.54
2019-03-24T08:27:46.574Z,43.37
2019-03-24T08:28:46.573Z,43.97
2019-03-24T08:29:46.568Z,43.75
2019-03-24T08:30:46.528Z,42.11
2019-03-24T08:31:46.508Z,43.26
2019-03-24T08:32:46.508Z,44.52
2019-03-24T08:33:46.535Z,44.09
2019-03-24T08:34:48.323Z,43.99
2019-03-24T08:35:46.506Z,43.81
2019-03-24T08:36:46.531Z,44.26
2019-03-24T08:37:46.446Z,44.89
2019-03-24T08:38:46.474Z,45.89
2019-03-24T08:39:46.459Z,45.60
2019-03-24T08:40:46.425Z,46.59
2019-03-24T08:41:46.458Z,45.70
2019-03-24T08:42:46.418Z,46.01
2019-03-24T08:43:46.400Z,46.03
2019-03-24T08:44:46.381Z,45.42
2019-03-24T08:45:46.398Z,46.97
2019-03-24T08:46:47.215Z,47.98
2019-03-24T08:47:46.357Z,47.29
2019-03-24T08:48:46.344Z,47.70
2019-03-24T08:49:46.353Z,48.31
2019-03-24T08:50:46.324Z,49.07
2019-03-24T08:51:46.336Z,49.58
2019-03-24T08:52:46.313Z,49.55
2019-03-24T08:53:46.309Z,50.23
2019-03-24T08:54:46.297Z,51.05
2019-03-24T08:55:46.272Z,52.78
2019-03-24T08:56:46.258Z,50.84
2019-03-24T08:57:46.230Z,51.53
2019-03-24T08:58:46.219Z,49.88
2019-03-24T08:59:46.276Z,49.89
2019-03-24T09:00:46.208Z,47.33
2019-03-24T09:01:46.220Z,45.68
2019-03-24T09:02:46.234Z,43.96
2019-03-24T09:03:46.199Z,42.96
2019-03-24T09:04:46.158Z,43.79
2019-03-24T09:05:46.149Z,42.05
2019-03-24T09:06:46.137Z,45.64
2019-03-24T09:07:46.124Z,41.80
2019-03-24T09:08:46.118Z,42.15
2019-03-24T09:09:46.123Z,42.63
2019-03-24T09:10:46.111Z,43.91
2019-03-24T09:11:46.082Z,46.22
2019-03-24T09:12:46.090Z,48.58
2019-03-24T09:13:46.083Z,47.46
2019-03-24T09:14:46.081Z,49.09
2019-03-24T09:15:46.042Z,47.92
2019-03-24T09:16:46.035Z,48.19
2019-03-24T09:17:46.098Z,45.60
2019-03-24T09:18:52.689Z,43.95
2019-03-24T09:19:47.076Z,40.33
2019-03-24T09:20:45.986Z,41.00
2019-03-24T09:21:46.022Z,40.01
2019-03-24T09:22:45.964Z,39.08
2019-03-24T09:23:45.964Z,39.04
2019-03-24T09:24:45.950Z,39.57
2019-03-24T09:25:45.935Z,40.23
2019-03-24T09:26:45.923Z,40.29
2019-03-24T09:27:45.910Z,41.34
2019-03-24T09:28:45.901Z,40.55
2019-03-24T09:29:47.507Z,42.03
2019-03-24T09:30:46.040Z,41.22
2019-03-24T09:32:16.610Z,41.50
2019-03-24T09:33:16.603Z,39.61
2019-03-24T09:34:47.453Z,38.96
2019-03-24T09:35:47.510Z,35.77
2019-03-24T09:37:18.025Z,37.89
2019-03-24T09:38:18.031Z,37.80
2019-03-24T09:39:48.840Z,33.32
2019-03-24T09:40:49.627Z,30.54
2019-03-24T09:42:20.406Z,28.85
2019-03-24T09:43:20.385Z,28.34
2019-03-24T09:44:51.076Z,27.94
2019-03-24T09:45:51.224Z,28.41
2019-03-24T09:47:21.745Z,26.89
2019-03-24T09:48:21.730Z,27.09
2019-03-24T09:49:52.470Z,28.80
2019-03-24T09:50:52.466Z,26.47
2019-03-24T09:52:23.153Z,24.94
2019-03-24T09:53:23.119Z,26.17
2019-03-24T09:54:53.967Z,26.08
2019-03-24T09:55:53.867Z,28.00
2019-03-24T09:57:24.740Z,29.48
2019-03-24T09:58:24.576Z,29.81
2019-03-24T09:59:24.552Z,28.75
2019-03-24T10:00:24.570Z,28.54
2019-03-24T10:01:24.541Z,27.13
2019-03-24T10:02:24.554Z,29.31
2019-03-24T10:03:24.515Z,28.74
2019-03-24T10:04:24.510Z,31.04
2019-03-24T10:05:24.562Z,30.81
2019-03-24T10:06:24.507Z,29.77
2019-03-24T10:07:24.506Z,29.38
2019-03-24T10:08:24.463Z,29.28
2019-03-24T10:09:24.462Z,29.74
2019-03-24T10:10:24.447Z,27.42
2019-03-24T10:11:24.437Z,26.75
2019-03-24T10:12:24.422Z,29.32
2019-03-24T10:13:24.414Z,30.82
2019-03-24T10:14:24.423Z,31.09
2019-03-24T10:15:24.396Z,32.53
2019-03-24T10:16:24.393Z,33.07
2019-03-24T10:17:24.392Z,33.17
2019-03-24T10:18:24.374Z,32.20
2019-03-24T10:19:24.376Z,31.53
2019-03-24T10:20:24.361Z,34.19
2019-03-24T10:21:24.338Z,33.45
2019-03-24T10:22:24.335Z,34.81
2019-03-24T10:23:24.322Z,36.27
2019-03-24T10:24:24.313Z,37.81
2019-03-24T10:25:24.297Z,38.37
2019-03-24T10:26:24.286Z,36.20
2019-03-24T10:27:24.277Z,37.79
2019-03-24T10:28:24.284Z,37.70
2019-03-24T10:29:24.263Z,40.05
2019-03-24T10:30:24.240Z,43.08
2019-03-24T10:31:24.232Z,39.95
2019-03-24T10:32:24.217Z,37.40
2019-03-24T10:33:24.220Z,37.10
2019-03-24T10:34:24.210Z,36.02
2019-03-24T10:35:24.184Z,37.01
2019-03-24T10:36:24.182Z,38.70
2019-03-24T10:37:24.171Z,35.48
2019-03-24T10:38:24.158Z,34.17
2019-03-24T10:39:24.150Z,35.04
2019-03-24T10:40:28.661Z,34.41
2019-03-24T10:41:25.121Z,34.99
2019-03-24T10:42:24.112Z,34.07
2019-03-24T10:43:24.112Z,34.47
2019-03-24T10:44:24.095Z,34.88
2019-03-24T10:45:24.090Z,35.05
2019-03-24T10:46:24.076Z,35.90
2019-03-24T10:47:24.063Z,36.49
2019-03-24T10:48:33.358Z,34.69
2019-03-24T10:49:25.461Z,34.92
2019-03-24T10:50:24.032Z,34.45
2019-03-24T10:51:24.032Z,37.71
2019-03-24T10:52:24.016Z,36.39
2019-03-24T10:53:24.000Z,34.49
2019-03-24T10:54:23.985Z,33.85
2019-03-24T10:55:23.978Z,33.11
2019-03-24T10:56:23.979Z,36.77
2019-03-24T10:57:23.958Z,39.52
2019-03-24T10:58:23.961Z,38.93
2019-03-24T10:59:23.945Z,37.70
2019-03-24T11:00:23.931Z,38.19
2019-03-24T11:01:23.919Z,37.37
2019-03-24T11:02:23.908Z,37.63
2019-03-24T11:03:23.899Z,35.41
2019-03-24T11:04:23.890Z,35.19
2019-03-24T11:05:23.874Z,36.00
2019-03-24T11:06:23.868Z,35.14
2019-03-24T11:07:23.858Z,36.51
2019-03-24T11:08:23.848Z,36.56
2019-03-24T11:09:23.837Z,39.26
2019-03-24T11:10:23.817Z,40.06
2019-03-24T11:11:23.820Z,39.64
2019-03-24T11:12:23.802Z,40.12
2019-03-24T11:13:23.793Z,38.37
2019-03-24T11:14:23.792Z,36.99
2019-03-24T11:15:23.773Z,36.47
2019-03-24T11:16:23.760Z,35.30
2019-03-24T11:17:23.747Z,35.80
2019-03-24T11:18:23.735Z,37.28
2019-03-24T11:19:23.728Z,34.79
2019-03-24T11:20:23.715Z,35.73
2019-03-24T11:21:23.706Z,35.97
2019-03-24T11:22:23.692Z,36.59
2019-03-24T11:23:23.694Z,38.07
2019-03-24T11:24:23.671Z,38.92
2019-03-24T11:25:23.670Z,40.46
2019-03-24T11:26:23.660Z,40.37
2019-03-24T11:27:23.642Z,41.21
2019-03-24T11:28:23.629Z,40.58
2019-03-24T11:29:23.627Z,41.55
2019-03-24T11:30:23.614Z,41.16
2019-03-24T11:31:23.612Z,41.35
2019-03-24T11:32:23.587Z,40.33
2019-03-24T11:33:23.579Z,40.35
2019-03-24T11:34:23.568Z,40.66
2019-03-24T11:35:23.557Z,41.37
2019-03-24T11:36:23.546Z,41.84
2019-03-24T11:37:23.532Z,40.68
2019-03-24T11:38:23.532Z,40.16
2019-03-24T11:39:23.518Z,40.42
2019-03-24T11:40:23.504Z,38.57
2019-03-24T11:41:23.490Z,38.00
2019-03-24T11:42:23.483Z,37.80
2019-03-24T11:43:23.488Z,37.80
2019-03-24T11:44:23.460Z,38.73
2019-03-24T11:45:23.448Z,39.17
2019-03-24T11:46:23.444Z,40.62
2019-03-24T11:47:26.875Z,39.70
2019-03-24T11:48:23.450Z,40.11
2019-03-24T11:49:23.404Z,40.91
2019-03-24T11:50:23.389Z,38.80
2019-03-24T11:51:23.396Z,40.11
2019-03-24T11:52:23.370Z,40.21
2019-03-24T11:53:23.368Z,39.99
2019-03-24T11:54:23.344Z,40.48
2019-03-24T11:55:23.334Z,40.07
2019-03-24T11:56:23.634Z,39.85
2019-03-24T11:57:23.328Z,38.00
2019-03-24T11:58:23.305Z,39.14
2019-03-24T11:59:23.300Z,38.12
2019-03-24T12:00:23.283Z,38.53
2019-03-24T12:01:23.300Z,37.92
2019-03-24T12:02:23.261Z,38.34
2019-03-24T12:03:25.289Z,36.00
2019-03-24T12:04:23.254Z,36.63
2019-03-24T12:05:23.232Z,36.73
2019-03-24T12:06:23.223Z,35.93
2019-03-24T12:07:23.204Z,36.63
2019-03-24T12:08:23.204Z,35.44
2019-03-24T12:09:23.187Z,35.05
2019-03-24T12:10:23.181Z,35.36
2019-03-24T12:11:23.161Z,36.56
2019-03-24T12:12:23.159Z,36.56
2019-03-24T12:13:23.146Z,37.68
2019-03-24T12:14:23.128Z,37.87
2019-03-24T12:15:23.126Z,37.65
2019-03-24T12:16:23.107Z,36.08
2019-03-24T12:17:23.127Z,35.85
2019-03-24T12:18:23.088Z,37.76
2019-03-24T12:19:23.090Z,35.31
2019-03-24T12:20:23.066Z,34.80
2019-03-24T12:21:23.059Z,35.51
2019-03-24T12:22:23.045Z,34.99
2019-03-24T12:23:23.038Z,34.77
2019-03-24T12:24:23.014Z,35.06
2019-03-24T12:25:23.021Z,33.54
2019-03-24T12:26:23.000Z,33.12
2019-03-24T12:27:22.995Z,33.83
2019-03-24T12:28:22.979Z,33.49
2019-03-24T12:29:22.968Z,33.69
2019-03-24T12:30:22.950Z,32.26
2019-03-24T12:31:22.944Z,33.88
2019-03-24T12:32:22.942Z,33.29
2019-03-24T12:33:22.924Z,31.64
2019-03-24T12:34:22.936Z,32.45
2019-03-24T12:35:22.899Z,32.03
2019-03-24T12:36:22.893Z,30.71
2019-03-24T12:37:22.876Z,31.12
2019-03-24T12:38:22.870Z,31.67
2019-03-24T12:39:22.856Z,31.38
2019-03-24T12:40:22.854Z,31.90
2019-03-24T12:41:22.845Z,31.49
2019-03-24T12:42:22.826Z,31.19
2019-03-24T12:43:22.818Z,32.31
2019-03-24T12:44:22.806Z,34.53
2019-03-24T12:45:22.790Z,32.50
2019-03-24T12:46:22.778Z,31.58
2019-03-24T12:47:22.766Z,32.71
2019-03-24T12:48:22.815Z,33.01
2019-03-24T12:49:22.748Z,33.30
2019-03-24T12:50:30.927Z,33.42
2019-03-24T12:51:23.720Z,31.80
2019-03-24T12:52:22.717Z,30.80
2019-03-24T12:53:22.711Z,31.54
2019-03-24T12:54:22.696Z,31.87
2019-03-24T12:55:22.689Z,31.90
2019-03-24T12:56:22.668Z,33.44
2019-03-24T12:57:22.662Z,33.95
2019-03-24T12:58:22.645Z,35.27
2019-03-24T12:59:22.637Z,34.97